Time;durP1;ratioP1;P1;durP2;ratioP2;P2;SDS_P1;SDS_P2;PMS_P1;PMS_P2;Temp;Humidity;BMP_temperature;BMP_pressure;BME280_temperature;BME280_humidity;BME280_pressure;Samples;Min_cycle;Max_cycle;Signal;HPM_P1;HPM_P2
2022/07/03 00:00:32;;;;;;;0.10;0.10;;;15.30;99.80;;;;;;4956307;29;20058;-93
2022/07/03 00:02:57;;;;;;;0.28;0.28;;;15.30;99.40;;;;;;4956379;29;20028;-93
2022/07/03 00:05:23;;;;;;;0.15;0.15;;;15.20;99.90;;;;;;4956552;29;20074;-93
2022/07/03 00:07:49;;;;;;;0.45;0.20;;;15.20;99.80;;;;;;4956313;29;20066;-92
2022/07/03 00:10:14;;;;;;;0.15;0.15;;;15.20;99.90;;;;;;4956168;29;20542;-93
2022/07/03 00:12:40;;;;;;;0.63;0.63;;;15.10;99.90;;;;;;4956013;29;20035;-93
2022/07/03 00:15:07;;;;;;;0.75;0.55;;;15.10;99.90;;;;;;4956184;29;20027;-93
2022/07/03 00:17:32;;;;;;;0.93;0.93;;;15.00;99.90;;;;;;4956052;29;20031;-93
2022/07/03 00:19:58;;;;;;;1.65;0.73;;;15.00;99.90;;;;;;4956034;29;20471;-94
2022/07/03 00:22:26;;;;;;;0.25;0.25;;;15.00;99.90;;;;;;4956033;29;20027;-94
2022/07/03 00:25:05;;;;;;;0.00;0.00;;;15.00;99.90;;;;;;4955946;29;20024;-93
2022/07/03 00:27:33;;;;;;;0.57;0.57;;;14.90;99.90;;;;;;4956112;29;20033;-93
2022/07/03 00:30:01;;;;;;;0.28;0.28;;;14.90;99.90;;;;;;4955779;29;20032;-94
2022/07/03 00:32:28;;;;;;;0.45;0.45;;;14.90;99.90;;;;;;4956796;29;20023;-93
2022/07/03 00:34:55;;;;;;;0.32;0.32;;;14.80;99.90;;;;;;4955740;29;20042;-92
2022/07/03 00:37:22;;;;;;;0.03;0.03;;;14.80;99.90;;;;;;4955973;29;20050;-93
2022/07/03 00:39:48;;;;;;;0.00;0.00;;;14.80;99.90;;;;;;4955849;29;20038;-93
2022/07/03 00:42:15;;;;;;;0.00;0.00;;;14.70;99.90;;;;;;4959266;29;20027;-93
2022/07/03 00:44:50;;;;;;;0.10;0.10;;;14.70;99.90;;;;;;4965835;28;20050;-93
2022/07/03 00:47:18;;;;;;;0.20;0.20;;;14.70;99.90;;;;;;4955540;29;20042;-93
2022/07/03 00:49:48;;;;;;;3.03;0.32;;;14.70;99.90;;;;;;4954985;29;20039;-94
2022/07/03 00:52:15;;;;;;;0.52;0.32;;;14.60;99.90;;;;;;4954836;29;20019;-93
2022/07/03 00:54:51;;;;;;;0.17;0.17;;;14.60;99.90;;;;;;4954722;29;20027;-94
2022/07/03 00:57:17;;;;;;;0.10;0.10;;;14.60;99.90;;;;;;4954786;29;20074;-93
2022/07/03 00:59:43;;;;;;;0.30;0.20;;;14.50;99.90;;;;;;4954614;29;20023;-94
2022/07/03 01:02:25;;;;;;;0.22;0.22;;;14.50;99.90;;;;;;4954726;29;20066;-93
2022/07/03 01:04:59;;;;;;;0.60;0.60;;;14.40;99.90;;;;;;4954870;29;20442;-94
2022/07/03 01:07:34;;;;;;;0.50;0.25;;;14.40;99.90;;;;;;4954753;29;20027;-94
2022/07/03 01:10:18;;;;;;;0.10;0.10;;;14.40;99.90;;;;;;4953587;29;20175;-93
2022/07/03 01:13:00;;;;;;;0.00;0.00;;;14.30;99.90;;;;;;4954502;29;20027;-94
2022/07/03 01:15:44;;;;;;;0.30;0.20;;;14.30;99.90;;;;;;4954689;29;20075;-94
2022/07/03 01:18:38;;;;;;;0.40;0.40;;;14.20;99.90;;;;;;4954470;29;20085;-93
2022/07/03 01:21:20;;;;;;;0.00;0.00;;;14.20;99.90;;;;;;4954268;29;20027;-93
2022/07/03 01:24:13;;;;;;;0.00;0.00;;;14.20;99.90;;;;;;4954403;29;20035;-93
2022/07/03 01:26:41;;;;;;;0.10;0.10;;;14.10;99.90;;;;;;4954465;29;20470;-93
2022/07/03 01:29:13;;;;;;;0.05;0.05;;;14.10;99.90;;;;;;4954233;29;20027;-93
2022/07/03 01:31:41;;;;;;;0.10;0.10;;;14.10;99.90;;;;;;4954250;29;20029;-93
2022/07/03 01:34:16;;;;;;;0.22;0.22;;;14.00;99.90;;;;;;4954299;29;20082;-93
2022/07/03 01:36:43;;;;;;;0.20;0.20;;;14.00;99.90;;;;;;4954338;29;20059;-92
2022/07/03 01:39:10;;;;;;;0.10;0.10;;;14.00;99.90;;;;;;4954331;29;20390;-92
2022/07/03 01:41:37;;;;;;;0.00;0.00;;;14.00;99.90;;;;;;4954520;29;20368;-93
2022/07/03 01:44:05;;;;;;;0.00;0.00;;;14.00;99.90;;;;;;4954072;29;20394;-92
2022/07/03 01:46:32;;;;;;;0.00;0.00;;;13.90;99.90;;;;;;4954140;29;20031;-93
2022/07/03 01:48:59;;;;;;;0.30;0.22;;;13.90;99.90;;;;;;4902012;29;1235202;-92
2022/07/03 01:51:27;;;;;;;0.22;0.22;;;13.90;99.90;;;;;;4952320;29;20086;-92
2022/07/03 01:53:53;;;;;;;0.10;0.10;;;13.90;99.90;;;;;;4967501;29;20043;-92
2022/07/03 01:56:21;;;;;;;0.00;0.00;;;13.90;99.90;;;;;;4954940;29;20028;-92
2022/07/03 01:58:47;;;;;;;0.43;0.43;;;13.90;99.90;;;;;;4954957;29;20028;-93
2022/07/03 02:01:45;;;;;;;0.47;0.47;;;13.90;99.90;;;;;;4954774;29;20474;-92
2022/07/03 02:04:28;;;;;;;0.00;0.00;;;13.80;99.90;;;;;;4913143;29;20043;-93
2022/07/03 02:07:18;;;;;;;0.28;0.08;;;13.80;99.90;;;;;;4954890;29;20166;-94
2022/07/03 02:09:47;;;;;;;0.00;0.00;;;13.80;99.90;;;;;;4954921;29;20027;-92
2022/07/03 02:12:14;;;;;;;0.65;0.65;;;13.80;99.90;;;;;;4955077;29;20038;-92
2022/07/03 02:14:44;;;;;;;0.13;0.13;;;13.80;99.90;;;;;;4954763;29;20031;-92
2022/07/03 02:17:16;;;;;;;;;;;13.80;99.90;;;;;;4955513;29;20029;-92
2022/07/03 02:19:45;;;;;;;0.00;0.00;;;13.80;99.90;;;;;;4951373;29;20007;-92
2022/07/03 02:22:13;;;;;;;0.30;0.30;;;13.80;99.90;;;;;;4957493;28;20031;-92
2022/07/03 02:24:44;;;;;;;0.00;0.00;;;13.80;99.90;;;;;;4950625;29;20478;-92
2022/07/03 02:27:27;;;;;;;0.30;0.17;;;13.80;99.90;;;;;;4942033;29;20054;-92
2022/07/03 02:30:04;;;;;;;0.00;0.00;;;13.80;99.90;;;;;;4941820;29;20476;-92
2022/07/03 02:32:36;;;;;;;0.00;0.00;;;13.80;99.90;;;;;;4942471;29;20038;-93
2022/07/03 02:35:06;;;;;;;0.10;0.10;;;13.80;99.90;;;;;;4959011;29;20034;-93
2022/07/03 02:37:55;;;;;;;0.10;0.10;;;13.80;99.90;;;;;;4942174;29;20058;-92
2022/07/03 02:41:00;;;;;;;0.13;0.13;;;13.80;99.90;;;;;;4941999;29;20039;-92
2022/07/03 02:43:52;;;;;;;0.10;0.10;;;13.90;99.90;;;;;;4913473;29;20043;-92
2022/07/03 02:46:48;;;;;;;0.00;0.00;;;13.90;99.90;;;;;;4941945;29;20027;-92
2022/07/03 02:49:29;;;;;;;0.00;0.00;;;13.90;99.90;;;;;;4941460;29;20043;-93
2022/07/03 02:52:29;;;;;;;0.30;0.30;;;14.00;99.90;;;;;;4941509;29;20041;-92
2022/07/03 02:55:01;;;;;;;1.40;0.63;;;14.00;99.90;;;;;;4941630;29;20485;-92
2022/07/03 02:57:37;;;;;;;0.08;0.08;;;14.00;99.90;;;;;;4941575;29;20031;-92
2022/07/03 03:00:06;;;;;;;0.20;0.20;;;14.10;99.90;;;;;;4941500;29;20031;-93
2022/07/03 03:02:50;;;;;;;0.00;0.00;;;14.20;99.90;;;;;;4948422;29;20035;-92
2022/07/03 03:05:21;;;;;;;0.10;0.10;;;14.20;99.90;;;;;;4959739;29;20023;-92
2022/07/03 03:08:05;;;;;;;;;;;14.20;99.90;;;;;;4957932;29;20023;-93
2022/07/03 03:10:34;;;;;;;0.20;0.20;;;14.30;99.90;;;;;;4957159;29;19910;-92
2022/07/03 03:13:06;;;;;;;0.45;0.45;;;14.30;99.90;;;;;;4957541;29;20031;-93
2022/07/03 03:15:34;;;;;;;1.17;0.85;;;14.40;99.90;;;;;;4957422;29;20028;-93
2022/07/03 03:18:07;;;;;;;0.15;0.15;;;14.50;99.90;;;;;;4957117;29;20033;-93
2022/07/03 03:20:35;;;;;;;0.00;0.00;;;14.60;99.90;;;;;;4957198;29;20386;-92
2022/07/03 03:23:34;;;;;;;0.05;0.05;;;14.60;99.90;;;;;;4957022;29;20031;-92
2022/07/03 03:26:00;;;;;;;0.03;0.03;;;14.70;99.90;;;;;;4957158;29;20059;-93
2022/07/03 03:28:26;;;;;;;0.55;0.55;;;14.80;99.90;;;;;;4956903;29;20434;-93
2022/07/03 03:30:52;;;;;;;0.10;0.10;;;14.90;99.90;;;;;;4956901;29;20027;-93
2022/07/03 03:33:19;;;;;;;0.00;0.00;;;14.90;99.90;;;;;;4955972;28;20031;-93
2022/07/03 03:35:45;;;;;;;0.05;0.05;;;15.00;99.90;;;;;;4957056;29;20049;-94
2022/07/03 03:38:12;;;;;;;0.10;0.10;;;15.10;99.90;;;;;;4956821;29;20478;-93
2022/07/03 03:40:37;;;;;;;0.00;0.00;;;15.10;99.90;;;;;;4956914;29;20095;-93
2022/07/03 03:43:04;;;;;;;0.00;0.00;;;15.30;99.90;;;;;;4956780;29;20522;-94
2022/07/03 03:45:30;;;;;;;0.20;0.20;;;15.30;99.90;;;;;;4956895;29;20161;-94
2022/07/03 03:47:55;;;;;;;0.20;0.10;;;15.40;99.90;;;;;;4956685;29;20083;-93
2022/07/03 03:50:22;;;;;;;0.00;0.00;;;15.50;99.90;;;;;;4956633;29;20023;-94
2022/07/03 03:52:49;;;;;;;0.00;0.00;;;15.60;99.90;;;;;;4956555;29;20031;-93
2022/07/03 03:55:14;;;;;;;0.20;0.20;;;15.80;99.90;;;;;;4956619;29;20059;-93
2022/07/03 03:57:40;;;;;;;0.43;0.20;;;15.90;99.90;;;;;;4956479;29;20079;-93
2022/07/03 04:00:07;;;;;;;0.00;0.00;;;16.00;99.90;;;;;;4956620;29;20038;-94
2022/07/03 04:02:32;;;;;;;0.20;0.20;;;16.10;99.90;;;;;;4956776;29;20023;-94
2022/07/03 04:04:58;;;;;;;3.20;1.45;;;16.30;99.90;;;;;;4957631;29;20034;-94
2022/07/03 04:07:24;;;;;;;0.10;0.10;;;16.40;99.90;;;;;;4956125;29;20035;-94
2022/07/03 04:09:49;;;;;;;0.10;0.10;;;16.60;99.90;;;;;;4956961;29;20023;-92
2022/07/03 04:12:15;;;;;;;1.40;0.55;;;16.70;99.90;;;;;;4959432;29;20031;-93
2022/07/03 04:14:41;;;;;;;0.00;0.00;;;16.80;99.90;;;;;;4964892;29;20024;-94
2022/07/03 04:17:07;;;;;;;0.00;0.00;;;17.00;99.60;;;;;;4956104;29;20057;-93
2022/07/03 04:19:33;;;;;;;0.10;0.10;;;17.10;98.90;;;;;;4956107;29;20027;-93
2022/07/03 04:21:58;;;;;;;0.25;0.08;;;17.30;98.60;;;;;;4956054;29;20475;-93
2022/07/03 04:24:24;;;;;;;0.03;0.03;;;17.50;97.70;;;;;;4955871;29;20023;-93
2022/07/03 04:26:50;;;;;;;0.15;0.15;;;17.70;97.40;;;;;;4956237;29;20054;-94
2022/07/03 04:29:15;;;;;;;0.47;0.47;;;17.80;95.20;;;;;;4955814;29;20386;-94
2022/07/03 04:31:41;;;;;;;0.25;0.25;;;18.10;95.80;;;;;;4955714;29;20094;-94
2022/07/03 04:34:07;;;;;;;0.10;0.10;;;18.20;94.30;;;;;;4955738;29;20397;-94
2022/07/03 04:36:33;;;;;;;0.40;0.40;;;18.50;93.50;;;;;;4956104;29;20574;-92
2022/07/03 04:38:58;;;;;;;0.57;0.57;;;18.60;94.00;;;;;;4955938;29;20082;-89
2022/07/03 04:41:24;;;;;;;0.10;0.10;;;18.80;93.10;;;;;;4956023;29;20414;-94
2022/07/03 04:43:50;;;;;;;0.63;0.30;;;19.00;92.10;;;;;;4955738;28;20061;-94
2022/07/03 18:25:56;;;;;;;0.08;0.08;;;24.00;64.00;;;;;;5111500;27;20385;-83
2022/07/03 18:28:24;;;;;;;0.00;0.00;;;23.40;65.00;;;;;;5109240;28;20085;-82
2022/07/03 18:30:51;;;;;;;0.30;0.15;;;23.30;65.50;;;;;;5109794;28;20108;-86
2022/07/03 18:33:19;;;;;;;0.00;0.00;;;23.20;66.70;;;;;;5109652;28;20462;-86
2022/07/03 18:35:45;;;;;;;0.17;0.17;;;23.10;66.10;;;;;;5109605;28;20454;-86
2022/07/03 18:38:13;;;;;;;0.52;0.52;;;23.00;67.10;;;;;;5109245;28;20047;-86
2022/07/03 18:40:40;;;;;;;0.25;0.25;;;23.00;67.60;;;;;;5109396;28;20123;-86
2022/07/03 18:43:07;;;;;;;0.10;0.10;;;23.00;68.30;;;;;;5109944;28;20454;-86
2022/07/03 18:45:37;;;;;;;0.20;0.20;;;23.00;69.80;;;;;;5109522;28;20039;-86
2022/07/03 18:48:03;;;;;;;0.43;0.38;;;23.00;72.50;;;;;;5109421;28;20390;-86
2022/07/03 18:50:33;;;;;;;0.30;0.30;;;22.90;72.50;;;;;;5109544;28;20020;-87
2022/07/03 18:53:18;;;;;;;0.35;0.35;;;22.90;75.40;;;;;;5109504;28;20141;-84
2022/07/03 18:55:53;;;;;;;0.60;0.60;;;22.80;73.30;;;;;;5110634;28;20032;-84
2022/07/03 18:58:43;;;;;;;0.52;0.52;;;22.80;72.20;;;;;;5109416;28;20065;-85
2022/07/03 19:01:09;;;;;;;1.08;0.65;;;22.70;71.40;;;;;;5110409;28;20019;-85
2022/07/03 19:04:00;;;;;;;0.00;0.00;;;22.70;75.20;;;;;;5110200;28;20055;-84
2022/07/03 19:06:31;;;;;;;6.78;1.27;;;22.60;72.20;;;;;;5110624;28;20031;-84
2022/07/03 19:09:07;;;;;;;0.15;0.15;;;22.60;73.40;;;;;;5110201;28;20081;-84
2022/07/03 19:11:48;;;;;;;1.08;1.02;;;22.60;73.30;;;;;;5110335;28;20019;-85
2022/07/03 19:14:20;;;;;;;0.00;0.00;;;22.60;73.10;;;;;;5108893;28;20058;-84
2022/07/03 19:16:47;;;;;;;0.30;0.30;;;22.60;74.20;;;;;;5108896;28;20023;-84
2022/07/03 19:19:15;;;;;;;0.20;0.20;;;22.60;73.80;;;;;;5110074;28;20035;-85
2022/07/03 19:21:42;;;;;;;0.50;0.50;;;22.60;77.20;;;;;;5107294;28;20113;-84
2022/07/03 19:24:10;;;;;;;0.45;0.40;;;22.50;78.60;;;;;;5108700;28;20060;-84
2022/07/03 19:26:36;;;;;;;5.32;1.80;;;22.50;75.40;;;;;;5108653;28;20028;-84
2022/07/03 19:29:02;;;;;;;0.25;0.25;;;22.50;75.10;;;;;;5108949;28;20038;-84
2022/07/03 19:31:29;;;;;;;0.13;0.13;;;22.50;75.40;;;;;;5109920;28;20482;-84
2022/07/03 19:33:54;;;;;;;0.90;0.90;;;22.40;77.10;;;;;;5109943;28;20034;-84
2022/07/03 19:36:22;;;;;;;0.10;0.10;;;22.40;77.00;;;;;;5100310;28;20110;-84
2022/07/03 19:38:48;;;;;;;1.45;0.17;;;22.40;77.10;;;;;;5095453;28;20039;-84
2022/07/03 19:41:14;;;;;;;0.43;0.43;;;22.30;75.80;;;;;;5095003;28;20031;-84
2022/07/03 19:43:40;;;;;;;0.90;0.35;;;22.30;75.40;;;;;;5095104;28;20452;-84
2022/07/03 19:46:06;;;;;;;0.35;0.35;;;22.30;75.10;;;;;;5095660;28;20111;-84
2022/07/03 19:48:32;;;;;;;0.70;0.55;;;22.30;74.90;;;;;;5094753;28;20060;-84
2022/07/03 19:50:58;;;;;;;0.10;0.10;;;22.20;75.50;;;;;;5111707;28;20023;-84
2022/07/03 19:53:24;;;;;;;0.10;0.10;;;22.20;75.90;;;;;;5095155;28;20020;-84
2022/07/03 19:55:49;;;;;;;0.30;0.30;;;22.10;75.80;;;;;;5094657;28;20023;-85
2022/07/03 19:58:15;;;;;;;0.43;0.25;;;22.10;78.50;;;;;;5096093;28;20028;-84
2022/07/03 20:00:41;;;;;;;0.15;0.15;;;22.10;77.80;;;;;;5094637;28;20024;-82
2022/07/03 20:03:07;;;;;;;0.00;0.00;;;22.00;76.50;;;;;;5094842;28;20111;-82
2022/07/03 20:05:34;;;;;;;0.20;0.20;;;21.90;75.90;;;;;;5094532;28;20032;-82
2022/07/03 20:07:59;;;;;;;0.17;0.17;;;21.90;75.80;;;;;;5095998;28;20016;-82
2022/07/03 20:10:27;;;;;;;0.20;0.20;;;21.90;75.80;;;;;;5095773;28;20038;-82
2022/07/03 20:12:55;;;;;;;0.22;0.22;;;21.90;75.80;;;;;;5094103;28;20077;-82
2022/07/03 20:15:21;;;;;;;0.20;0.20;;;21.90;77.50;;;;;;5094224;28;20073;-82
2022/07/03 20:17:48;;;;;;;0.28;0.28;;;21.90;79.40;;;;;;5093981;28;20073;-82
2022/07/03 20:20:15;;;;;;;0.13;0.13;;;21.80;78.80;;;;;;5093760;28;20535;-81
2022/07/03 20:22:42;;;;;;;0.28;0.28;;;21.80;77.80;;;;;;5095226;28;20028;-82
2022/07/03 20:25:08;;;;;;;0.03;0.03;;;21.80;77.90;;;;;;5093799;28;20131;-82
2022/07/03 20:27:34;;;;;;;3.67;0.57;;;21.80;78.30;;;;;;5094154;28;20115;-82
2022/07/03 20:29:59;;;;;;;0.13;0.13;;;21.90;78.00;;;;;;5094088;28;20055;-82
2022/07/03 20:32:25;;;;;;;0.00;0.00;;;21.90;78.30;;;;;;5091915;28;20022;-82
2022/07/03 20:34:51;;;;;;;0.32;0.32;;;21.80;78.50;;;;;;5094157;28;20032;-82
2022/07/03 20:37:20;;;;;;;0.35;0.32;;;21.90;79.80;;;;;;5093192;28;20055;-82
2022/07/03 20:39:46;;;;;;;0.22;0.22;;;21.80;80.40;;;;;;5093624;28;20032;-82
2022/07/03 20:42:12;;;;;;;0.17;0.17;;;21.80;79.90;;;;;;5094733;28;20028;-82
2022/07/03 20:44:39;;;;;;;0.10;0.10;;;21.80;79.60;;;;;;5094867;28;20024;-82
2022/07/03 20:47:05;;;;;;;0.00;0.00;;;21.80;79.60;;;;;;5094302;28;20024;-82
2022/07/03 20:49:31;;;;;;;0.03;0.03;;;21.80;80.20;;;;;;5094620;28;20012;-82
2022/07/03 20:51:58;;;;;;;0.50;0.50;;;21.80;79.50;;;;;;5094833;28;20095;-82
2022/07/03 20:54:25;;;;;;;0.30;0.30;;;21.70;80.00;;;;;;5093558;28;20035;-82
2022/07/03 20:56:52;;;;;;;0.00;0.00;;;21.70;80.40;;;;;;5093597;28;20487;-82
2022/07/03 20:59:17;;;;;;;0.22;0.05;;;21.60;80.90;;;;;;5093198;28;20035;-82
2022/07/03 21:01:43;;;;;;;0.20;0.10;;;21.60;80.70;;;;;;5093576;28;20024;-82
2022/07/03 21:04:09;;;;;;;0.22;0.20;;;21.50;80.80;;;;;;5093352;28;20379;-82
2022/07/03 21:06:36;;;;;;;0.08;0.03;;;21.50;81.70;;;;;;5093003;28;20116;-82
2022/07/03 21:09:05;;;;;;;0.30;0.28;;;21.40;81.90;;;;;;5092887;28;20024;-82
2022/07/03 21:11:32;;;;;;;0.00;0.00;;;21.40;81.80;;;;;;5094786;28;20027;-82
2022/07/03 21:14:06;;;;;;;0.00;0.00;;;21.30;82.30;;;;;;5093202;28;20032;-82
2022/07/03 21:16:32;;;;;;;0.08;0.08;;;21.30;82.30;;;;;;5093192;28;20016;-82
2022/07/03 21:19:00;;;;;;;1.00;0.45;;;21.30;82.60;;;;;;5094108;28;20073;-82
2022/07/03 21:21:27;;;;;;;0.90;0.52;;;21.20;83.40;;;;;;5094367;28;20034;-82
2022/07/03 21:23:53;;;;;;;0.00;0.00;;;21.20;84.40;;;;;;5094119;28;20055;-82
2022/07/03 21:26:18;;;;;;;0.10;0.10;;;21.10;85.50;;;;;;5094231;28;20020;-82
2022/07/03 21:28:44;;;;;;;0.22;0.22;;;21.10;85.30;;;;;;5093242;28;20107;-82
2022/07/03 21:31:10;;;;;;;0.60;0.60;;;21.00;84.60;;;;;;5109894;28;20031;-82
2022/07/03 21:33:35;;;;;;;0.40;0.40;;;21.00;85.90;;;;;;5092798;28;20023;-82
2022/07/03 21:36:01;;;;;;;0.80;0.80;;;20.90;84.10;;;;;;5092702;28;20134;-82
2022/07/03 21:38:27;;;;;;;0.28;0.28;;;20.90;86.10;;;;;;5094160;28;20485;-82
2022/07/03 21:40:54;;;;;;;0.95;0.95;;;20.90;88.20;;;;;;5091817;28;20118;-82
2022/07/03 21:43:19;;;;;;;0.30;0.30;;;20.80;85.70;;;;;;5089662;28;20029;-82
2022/07/03 21:45:45;;;;;;;0.47;0.47;;;20.80;84.50;;;;;;5092914;28;20028;-82
2022/07/03 21:48:11;;;;;;;0.98;0.98;;;20.70;84.10;;;;;;5092626;28;20062;-82
2022/07/03 21:50:36;;;;;;;1.23;1.13;;;20.70;83.50;;;;;;5092716;28;20020;-82
2022/07/03 21:53:02;;;;;;;0.50;0.50;;;20.70;83.70;;;;;;5094094;28;20079;-82
2022/07/03 21:55:31;;;;;;;3.63;0.43;;;20.60;83.60;;;;;;5092724;28;20038;-82
2022/07/03 21:57:56;;;;;;;0.10;0.10;;;20.60;84.20;;;;;;5093617;28;20034;-82
2022/07/03 22:00:22;;;;;;;0.80;0.55;;;20.50;85.00;;;;;;5093477;28;20020;-82
2022/07/03 22:02:48;;;;;;;0.40;0.40;;;20.50;84.80;;;;;;5093773;28;20030;-81
2022/07/03 22:05:14;;;;;;;0.15;0.15;;;20.40;84.00;;;;;;5093336;28;20106;-82
2022/07/03 22:07:40;;;;;;;0.20;0.10;;;20.40;84.90;;;;;;5093251;28;20020;-82
2022/07/03 22:10:07;;;;;;;0.13;0.13;;;20.20;84.90;;;;;;5091569;28;20012;-82
2022/07/03 22:12:33;;;;;;;0.38;0.38;;;20.20;84.80;;;;;;5093292;28;20016;-82
2022/07/03 22:15:06;;;;;;;0.30;0.30;;;20.10;85.70;;;;;;5093307;28;20428;-82
2022/07/03 22:17:33;;;;;;;0.03;0.03;;;20.00;85.70;;;;;;5090063;28;20027;-82
2022/07/03 22:19:59;;;;;;;0.20;0.20;;;20.00;86.00;;;;;;5090119;28;20016;-81
2022/07/03 22:22:26;;;;;;;0.10;0.10;;;19.90;85.80;;;;;;5090072;28;20480;-82
2022/07/03 22:24:52;;;;;;;0.10;0.10;;;19.80;85.70;;;;;;5088973;28;20048;-82
2022/07/03 22:27:18;;;;;;;0.43;0.30;;;19.80;88.20;;;;;;5088934;28;20066;-82
2022/07/03 22:29:44;;;;;;;0.10;0.10;;;19.70;88.70;;;;;;5091494;28;20004;-82
2022/07/03 22:32:09;;;;;;;0.32;0.30;;;19.70;89.60;;;;;;5091795;28;20024;-82
2022/07/03 22:34:35;;;;;;;0.25;0.25;;;19.70;88.10;;;;;;5093041;28;20028;-82
2022/07/03 22:37:03;;;;;;;0.20;0.20;;;19.70;87.70;;;;;;5093428;28;20028;-82
2022/07/03 22:39:29;;;;;;;0.30;0.10;;;19.70;88.80;;;;;;5092125;28;20063;-82
2022/07/03 22:41:56;;;;;;;0.05;0.05;;;19.70;87.70;;;;;;5093169;28;20032;-82
2022/07/03 22:44:22;;;;;;;0.30;0.30;;;19.70;88.60;;;;;;5091868;28;20031;-82
2022/07/03 22:46:48;;;;;;;0.20;0.20;;;19.80;88.90;;;;;;5093478;28;20020;-82
2022/07/03 22:49:15;;;;;;;0.20;0.20;;;19.90;88.40;;;;;;5093356;28;20523;-82
2022/07/03 22:51:41;;;;;;;0.10;0.10;;;19.90;88.70;;;;;;5088375;28;20387;-82
2022/07/03 22:54:07;;;;;;;0.20;0.10;;;19.90;89.10;;;;;;5091282;28;20020;-82
2022/07/03 22:56:33;;;;;;;0.05;0.05;;;19.90;89.30;;;;;;5092150;28;20039;-82
2022/07/03 22:58:59;;;;;;;0.20;0.20;;;19.90;89.00;;;;;;5092472;28;20020;-81
2022/07/03 23:01:27;;;;;;;0.00;0.00;;;20.00;90.00;;;;;;5092728;28;20022;-82
2022/07/03 23:03:53;;;;;;;0.00;0.00;;;20.00;89.70;;;;;;5093055;28;20491;-82
2022/07/03 23:06:18;;;;;;;0.13;0.13;;;20.00;90.10;;;;;;5093056;28;20130;-82
2022/07/03 23:08:44;;;;;;;0.10;0.10;;;20.10;89.70;;;;;;5091409;28;20077;-82
2022/07/03 23:11:10;;;;;;;0.00;0.00;;;20.10;89.20;;;;;;5093827;28;20019;-82
2022/07/03 23:13:36;;;;;;;0.00;0.00;;;20.10;88.60;;;;;;5094866;28;20017;-82
2022/07/03 23:16:02;;;;;;;0.10;0.10;;;20.00;88.20;;;;;;5097089;28;20073;-82
2022/07/03 23:18:27;;;;;;;0.25;0.25;;;20.10;88.60;;;;;;5095233;28;20020;-82
2022/07/03 23:20:53;;;;;;;0.00;0.00;;;20.00;88.00;;;;;;5095408;28;20027;-82
2022/07/03 23:23:19;;;;;;;0.47;0.47;;;20.00;87.60;;;;;;5095419;28;20074;-82
2022/07/03 23:25:45;;;;;;;0.25;0.20;;;20.00;88.50;;;;;;5094896;28;20047;-82
2022/07/03 23:28:11;;;;;;;0.25;0.20;;;19.90;88.60;;;;;;5094980;28;20159;-82
2022/07/03 23:30:36;;;;;;;0.10;0.10;;;19.90;89.00;;;;;;5095437;28;20020;-82
2022/07/03 23:33:02;;;;;;;0.57;0.57;;;19.90;86.80;;;;;;5095103;28;20020;-82
2022/07/03 23:35:28;;;;;;;0.40;0.10;;;19.80;85.80;;;;;;5095070;28;20035;-82
2022/07/03 23:37:53;;;;;;;0.00;0.00;;;19.80;83.80;;;;;;5096444;28;20032;-82
2022/07/03 23:40:20;;;;;;;0.08;0.08;;;19.80;82.80;;;;;;5096162;28;20466;-82
2022/07/03 23:42:45;;;;;;;0.98;0.98;;;19.80;83.60;;;;;;5096079;28;20034;-82
2022/07/03 23:45:11;;;;;;;0.10;0.10;;;19.80;83.30;;;;;;5096397;28;20106;-82
2022/07/03 23:47:37;;;;;;;0.13;0.10;;;19.80;83.70;;;;;;5096252;28;20028;-82
2022/07/03 23:52:48;;;;;;;0.47;0.47;;;19.70;84.10;;;;;;5095414;28;20019;-82
2022/07/03 23:55:14;;;;;;;0.13;0.13;;;19.60;84.00;;;;;;5096042;28;20382;-82
2022/07/03 23:57:40;;;;;;;1.00;0.80;;;19.50;83.90;;;;;;5094452;28;20074;-82
